sensor_id;sensor_type;location;lat;lon;timestamp;P1;durP1;ratioP1;P2;durP2;ratioP2
20365;SDS011;10341;49.894;8.822;2023-05-19T00:00:22;4.22;;;2.50;;
20365;SDS011;10341;49.894;8.822;2023-05-19T00:05:42;4.95;;;2.40;;
20365;SDS011;10341;49.894;8.822;2023-05-19T00:11:03;5.85;;;2.70;;
20365;SDS011;10341;49.894;8.822;2023-05-19T00:16:24;4.00;;;2.33;;
20365;SDS011;10341;49.894;8.822;2023-05-19T00:21:44;3.53;;;2.63;;
20365;SDS011;10341;49.894;8.822;2023-05-19T00:27:03;3.63;;;2.50;;
20365;SDS011;10341;49.894;8.822;2023-05-19T00:32:23;3.83;;;2.50;;
20365;SDS011;10341;49.894;8.822;2023-05-19T00:37:42;3.10;;;2.53;;
20365;SDS011;10341;49.894;8.822;2023-05-19T00:43:01;4.15;;;2.42;;
20365;SDS011;10341;49.894;8.822;2023-05-19T00:48:21;5.07;;;2.55;;
20365;SDS011;10341;49.894;8.822;2023-05-19T00:53:40;5.82;;;2.67;;
20365;SDS011;10341;49.894;8.822;2023-05-19T00:59:02;4.63;;;2.80;;
20365;SDS011;10341;49.894;8.822;2023-05-19T01:04:22;5.80;;;2.60;;
20365;SDS011;10341;49.894;8.822;2023-05-19T01:09:43;6.45;;;2.67;;
20365;SDS011;10341;49.894;8.822;2023-05-19T01:15:02;5.15;;;2.75;;
20365;SDS011;10341;49.894;8.822;2023-05-19T01:20:26;3.78;;;2.63;;
20365;SDS011;10341;49.894;8.822;2023-05-19T01:25:59;6.05;;;2.58;;
20365;SDS011;10341;49.894;8.822;2023-05-19T01:31:28;4.75;;;2.90;;
20365;SDS011;10341;49.894;8.822;2023-05-19T01:42:08;4.50;;;2.78;;
20365;SDS011;10341;49.894;8.822;2023-05-19T01:47:29;6.07;;;3.10;;
20365;SDS011;10341;49.894;8.822;2023-05-19T01:52:49;3.75;;;2.90;;
20365;SDS011;10341;49.894;8.822;2023-05-19T02:09:36;5.82;;;2.70;;
20365;SDS011;10341;49.894;8.822;2023-05-19T02:15:04;7.20;;;2.90;;
20365;SDS011;10341;49.894;8.822;2023-05-19T02:20:34;4.68;;;2.30;;
20365;SDS011;10341;49.894;8.822;2023-05-19T02:25:53;2.13;;;1.83;;
20365;SDS011;10341;49.894;8.822;2023-05-19T02:31:13;3.17;;;2.30;;
20365;SDS011;10341;49.894;8.822;2023-05-19T02:36:32;2.17;;;1.75;;
20365;SDS011;10341;49.894;8.822;2023-05-19T02:41:53;1.88;;;1.60;;
20365;SDS011;10341;49.894;8.822;2023-05-19T02:52:32;1.98;;;1.50;;
20365;SDS011;10341;49.894;8.822;2023-05-19T02:57:51;3.63;;;1.90;;
20365;SDS011;10341;49.894;8.822;2023-05-19T03:03:11;3.72;;;2.10;;
20365;SDS011;10341;49.894;8.822;2023-05-19T03:08:31;3.00;;;1.95;;
20365;SDS011;10341;49.894;8.822;2023-05-19T03:13:50;2.40;;;2.20;;
20365;SDS011;10341;49.894;8.822;2023-05-19T03:19:09;3.07;;;1.87;;
20365;SDS011;10341;49.894;8.822;2023-05-19T03:24:28;1.92;;;1.65;;
20365;SDS011;10341;49.894;8.822;2023-05-19T03:29:48;1.95;;;1.73;;
20365;SDS011;10341;49.894;8.822;2023-05-19T03:35:07;2.37;;;2.07;;
20365;SDS011;10341;49.894;8.822;2023-05-19T03:40:26;3.65;;;2.20;;
20365;SDS011;10341;49.894;8.822;2023-05-19T03:45:53;2.03;;;1.83;;
20365;SDS011;10341;49.894;8.822;2023-05-19T03:51:31;2.63;;;2.00;;
20365;SDS011;10341;49.894;8.822;2023-05-19T03:56:59;2.58;;;2.10;;
20365;SDS011;10341;49.894;8.822;2023-05-19T04:02:19;2.08;;;1.88;;
20365;SDS011;10341;49.894;8.822;2023-05-19T04:07:40;2.40;;;1.85;;
20365;SDS011;10341;49.894;8.822;2023-05-19T04:12:59;2.10;;;1.90;;
20365;SDS011;10341;49.894;8.822;2023-05-19T04:18:19;3.45;;;1.95;;
20365;SDS011;10341;49.894;8.822;2023-05-19T04:23:38;2.70;;;2.47;;
20365;SDS011;10341;49.894;8.822;2023-05-19T04:28:57;2.35;;;2.10;;
20365;SDS011;10341;49.894;8.822;2023-05-19T04:34:17;3.10;;;1.92;;
20365;SDS011;10341;49.894;8.822;2023-05-19T04:39:38;2.88;;;2.20;;
20365;SDS011;10341;49.894;8.822;2023-05-19T04:45:01;2.88;;;2.05;;
20365;SDS011;10341;49.894;8.822;2023-05-19T04:50:24;4.20;;;2.70;;
20365;SDS011;10341;49.894;8.822;2023-05-19T04:55:44;3.55;;;2.13;;
20365;SDS011;10341;49.894;8.822;2023-05-19T05:01:05;2.72;;;2.20;;
20365;SDS011;10341;49.894;8.822;2023-05-19T05:06:25;2.72;;;2.08;;
20365;SDS011;10341;49.894;8.822;2023-05-19T05:11:46;2.70;;;2.10;;
20365;SDS011;10341;49.894;8.822;2023-05-19T05:17:06;2.50;;;2.00;;
20365;SDS011;10341;49.894;8.822;2023-05-19T05:27:45;4.22;;;1.98;;
20365;SDS011;10341;49.894;8.822;2023-05-19T05:33:05;2.70;;;2.17;;
20365;SDS011;10341;49.894;8.822;2023-05-19T05:38:30;2.25;;;2.05;;
20365;SDS011;10341;49.894;8.822;2023-05-19T05:43:49;3.63;;;1.95;;
20365;SDS011;10341;49.894;8.822;2023-05-19T05:49:10;2.50;;;2.03;;
20365;SDS011;10341;49.894;8.822;2023-05-19T05:54:33;3.13;;;2.10;;
20365;SDS011;10341;49.894;8.822;2023-05-19T05:59:53;4.75;;;2.45;;
20365;SDS011;10341;49.894;8.822;2023-05-19T06:05:13;2.53;;;2.00;;
20365;SDS011;10341;49.894;8.822;2023-05-19T06:10:34;1.90;;;1.70;;
20365;SDS011;10341;49.894;8.822;2023-05-19T06:15:58;2.22;;;1.60;;
20365;SDS011;10341;49.894;8.822;2023-05-19T06:21:22;3.30;;;1.95;;
20365;SDS011;10341;49.894;8.822;2023-05-19T06:26:42;2.13;;;1.70;;
20365;SDS011;10341;49.894;8.822;2023-05-19T06:32:02;2.72;;;1.60;;
20365;SDS011;10341;49.894;8.822;2023-05-19T06:37:22;2.95;;;1.83;;
20365;SDS011;10341;49.894;8.822;2023-05-19T06:42:42;2.25;;;1.40;;
20365;SDS011;10341;49.894;8.822;2023-05-19T06:48:13;1.98;;;1.30;;
20365;SDS011;10341;49.894;8.822;2023-05-19T06:53:33;2.53;;;1.38;;
20365;SDS011;10341;49.894;8.822;2023-05-19T06:58:57;3.83;;;1.25;;
20365;SDS011;10341;49.894;8.822;2023-05-19T07:04:22;3.05;;;1.60;;
20365;SDS011;10341;49.894;8.822;2023-05-19T07:09:42;2.10;;;1.35;;
20365;SDS011;10341;49.894;8.822;2023-05-19T07:15:01;1.63;;;1.13;;
20365;SDS011;10341;49.894;8.822;2023-05-19T07:20:21;1.70;;;1.20;;
20365;SDS011;10341;49.894;8.822;2023-05-19T07:25:40;1.90;;;1.20;;
20365;SDS011;10341;49.894;8.822;2023-05-19T07:30:59;1.73;;;1.15;;
20365;SDS011;10341;49.894;8.822;2023-05-19T07:36:19;2.90;;;1.40;;
20365;SDS011;10341;49.894;8.822;2023-05-19T07:41:38;2.53;;;1.30;;
20365;SDS011;10341;49.894;8.822;2023-05-19T07:46:57;1.75;;;1.23;;
20365;SDS011;10341;49.894;8.822;2023-05-19T07:52:17;2.38;;;1.27;;
20365;SDS011;10341;49.894;8.822;2023-05-19T07:57:36;2.40;;;1.20;;
20365;SDS011;10341;49.894;8.822;2023-05-19T08:02:55;1.80;;;0.90;;
20365;SDS011;10341;49.894;8.822;2023-05-19T08:08:16;2.38;;;1.10;;
20365;SDS011;10341;49.894;8.822;2023-05-19T08:13:37;4.40;;;1.30;;
20365;SDS011;10341;49.894;8.822;2023-05-19T08:18:56;3.47;;;1.30;;
20365;SDS011;10341;49.894;8.822;2023-05-19T08:24:15;2.10;;;1.08;;
20365;SDS011;10341;49.894;8.822;2023-05-19T08:29:34;3.10;;;1.08;;
20365;SDS011;10341;49.894;8.822;2023-05-19T08:34:55;1.52;;;1.00;;
20365;SDS011;10341;49.894;8.822;2023-05-19T08:40:17;2.07;;;1.10;;
20365;SDS011;10341;49.894;8.822;2023-05-19T08:45:38;2.75;;;0.85;;
20365;SDS011;10341;49.894;8.822;2023-05-19T08:56:37;2.97;;;0.98;;
20365;SDS011;10341;49.894;8.822;2023-05-19T09:01:57;1.98;;;1.02;;
20365;SDS011;10341;49.894;8.822;2023-05-19T09:07:16;2.85;;;1.08;;
20365;SDS011;10341;49.894;8.822;2023-05-19T09:12:37;1.70;;;1.45;;
20365;SDS011;10341;49.894;8.822;2023-05-19T09:18:09;1.80;;;1.00;;
20365;SDS011;10341;49.894;8.822;2023-05-19T09:23:30;3.10;;;1.40;;
20365;SDS011;10341;49.894;8.822;2023-05-19T09:28:56;1.80;;;0.90;;
20365;SDS011;10341;49.894;8.822;2023-05-19T09:34:16;1.27;;;0.98;;
20365;SDS011;10341;49.894;8.822;2023-05-19T09:39:35;3.35;;;1.20;;
20365;SDS011;10341;49.894;8.822;2023-05-19T09:45:00;3.22;;;0.93;;
20365;SDS011;10341;49.894;8.822;2023-05-19T09:50:20;2.90;;;1.02;;
20365;SDS011;10341;49.894;8.822;2023-05-19T09:55:40;1.95;;;1.00;;
20365;SDS011;10341;49.894;8.822;2023-05-19T10:01:00;5.55;;;2.05;;
20365;SDS011;10341;49.894;8.822;2023-05-19T10:06:21;2.72;;;1.23;;
20365;SDS011;10341;49.894;8.822;2023-05-19T10:11:40;1.40;;;0.90;;
20365;SDS011;10341;49.894;8.822;2023-05-19T10:17:00;2.47;;;1.20;;
20365;SDS011;10341;49.894;8.822;2023-05-19T10:22:19;5.75;;;1.10;;
20365;SDS011;10341;49.894;8.822;2023-05-19T10:27:40;2.40;;;1.13;;
20365;SDS011;10341;49.894;8.822;2023-05-19T10:33:02;1.52;;;1.00;;
20365;SDS011;10341;49.894;8.822;2023-05-19T10:49:28;1.47;;;1.10;;
20365;SDS011;10341;49.894;8.822;2023-05-19T10:54:52;1.63;;;0.90;;
20365;SDS011;10341;49.894;8.822;2023-05-19T11:00:28;1.33;;;0.95;;
20365;SDS011;10341;49.894;8.822;2023-05-19T11:05:49;1.65;;;1.00;;
20365;SDS011;10341;49.894;8.822;2023-05-19T11:11:16;1.50;;;0.90;;
20365;SDS011;10341;49.894;8.822;2023-05-19T11:16:35;0.70;;;0.70;;
20365;SDS011;10341;49.894;8.822;2023-05-19T11:21:55;0.82;;;0.65;;
20365;SDS011;10341;49.894;8.822;2023-05-19T11:27:28;2.20;;;0.80;;
20365;SDS011;10341;49.894;8.822;2023-05-19T11:32:48;1.23;;;0.80;;
20365;SDS011;10341;49.894;8.822;2023-05-19T11:38:08;1.98;;;1.10;;
20365;SDS011;10341;49.894;8.822;2023-05-19T11:43:29;1.60;;;1.02;;
20365;SDS011;10341;49.894;8.822;2023-05-19T11:48:48;0.98;;;0.77;;
20365;SDS011;10341;49.894;8.822;2023-05-19T11:54:11;1.13;;;0.80;;
20365;SDS011;10341;49.894;8.822;2023-05-19T11:59:32;1.02;;;0.82;;
20365;SDS011;10341;49.894;8.822;2023-05-19T12:04:53;2.92;;;1.00;;
20365;SDS011;10341;49.894;8.822;2023-05-19T12:10:12;2.35;;;1.00;;
20365;SDS011;10341;49.894;8.822;2023-05-19T12:15:32;2.65;;;1.00;;
20365;SDS011;10341;49.894;8.822;2023-05-19T12:26:11;2.15;;;1.15;;
20365;SDS011;10341;49.894;8.822;2023-05-19T12:31:31;1.42;;;1.25;;
20365;SDS011;10341;49.894;8.822;2023-05-19T12:36:52;1.60;;;0.95;;
20365;SDS011;10341;49.894;8.822;2023-05-19T12:42:11;2.67;;;0.97;;
20365;SDS011;10341;49.894;8.822;2023-05-19T12:47:32;1.52;;;0.80;;
20365;SDS011;10341;49.894;8.822;2023-05-19T12:52:52;1.85;;;1.00;;
20365;SDS011;10341;49.894;8.822;2023-05-19T13:03:38;1.15;;;0.93;;
20365;SDS011;10341;49.894;8.822;2023-05-19T13:09:01;1.10;;;0.82;;
20365;SDS011;10341;49.894;8.822;2023-05-19T13:14:21;1.23;;;0.90;;
20365;SDS011;10341;49.894;8.822;2023-05-19T13:19:40;1.33;;;0.87;;
20365;SDS011;10341;49.894;8.822;2023-05-19T13:24:59;1.80;;;0.93;;
20365;SDS011;10341;49.894;8.822;2023-05-19T13:30:20;1.73;;;1.00;;
20365;SDS011;10341;49.894;8.822;2023-05-19T13:35:39;1.27;;;0.85;;
20365;SDS011;10341;49.894;8.822;2023-05-19T13:40:58;2.40;;;1.07;;
20365;SDS011;10341;49.894;8.822;2023-05-19T13:46:18;2.75;;;1.00;;
20365;SDS011;10341;49.894;8.822;2023-05-19T13:51:38;1.80;;;1.02;;
20365;SDS011;10341;49.894;8.822;2023-05-19T13:56:59;1.52;;;1.00;;
20365;SDS011;10341;49.894;8.822;2023-05-19T14:02:18;1.40;;;0.90;;
20365;SDS011;10341;49.894;8.822;2023-05-19T14:07:37;2.10;;;1.00;;
20365;SDS011;10341;49.894;8.822;2023-05-19T14:12:57;1.73;;;1.00;;
20365;SDS011;10341;49.894;8.822;2023-05-19T14:18:17;1.05;;;0.90;;
20365;SDS011;10341;49.894;8.822;2023-05-19T14:23:36;1.33;;;0.82;;
20365;SDS011;10341;49.894;8.822;2023-05-19T14:28:56;3.35;;;0.95;;
20365;SDS011;10341;49.894;8.822;2023-05-19T14:34:15;2.20;;;1.33;;
20365;SDS011;10341;49.894;8.822;2023-05-19T14:39:38;1.45;;;1.00;;
20365;SDS011;10341;49.894;8.822;2023-05-19T14:44:57;1.25;;;1.02;;
20365;SDS011;10341;49.894;8.822;2023-05-19T14:50:16;1.93;;;1.30;;
20365;SDS011;10341;49.894;8.822;2023-05-19T14:55:36;1.00;;;0.90;;
20365;SDS011;10341;49.894;8.822;2023-05-19T15:00:56;1.90;;;1.30;;
20365;SDS011;10341;49.894;8.822;2023-05-19T15:06:16;1.13;;;0.98;;
20365;SDS011;10341;49.894;8.822;2023-05-19T15:11:35;1.65;;;1.40;;
20365;SDS011;10341;49.894;8.822;2023-05-19T15:16:54;2.10;;;1.10;;
20365;SDS011;10341;49.894;8.822;2023-05-19T15:22:13;1.40;;;1.10;;
20365;SDS011;10341;49.894;8.822;2023-05-19T15:27:33;1.40;;;1.20;;
20365;SDS011;10341;49.894;8.822;2023-05-19T15:32:54;3.33;;;1.48;;
20365;SDS011;10341;49.894;8.822;2023-05-19T15:38:13;1.80;;;1.30;;
20365;SDS011;10341;49.894;8.822;2023-05-19T15:43:32;4.30;;;1.70;;
20365;SDS011;10341;49.894;8.822;2023-05-19T15:48:51;3.42;;;2.28;;
20365;SDS011;10341;49.894;8.822;2023-05-19T15:54:11;1.20;;;1.10;;
20365;SDS011;10341;49.894;8.822;2023-05-19T15:59:30;3.47;;;1.57;;
20365;SDS011;10341;49.894;8.822;2023-05-19T16:04:49;5.30;;;3.05;;
20365;SDS011;10341;49.894;8.822;2023-05-19T16:10:08;1.80;;;1.40;;
20365;SDS011;10341;49.894;8.822;2023-05-19T16:15:28;1.52;;;1.02;;
20365;SDS011;10341;49.894;8.822;2023-05-19T16:20:47;2.60;;;1.50;;
20365;SDS011;10341;49.894;8.822;2023-05-19T16:26:06;1.50;;;1.20;;
20365;SDS011;10341;49.894;8.822;2023-05-19T16:31:25;1.55;;;1.08;;
20365;SDS011;10341;49.894;8.822;2023-05-19T16:36:45;2.63;;;1.08;;
20365;SDS011;10341;49.894;8.822;2023-05-19T16:42:04;1.63;;;1.27;;
20365;SDS011;10341;49.894;8.822;2023-05-19T16:47:23;1.90;;;1.40;;
20365;SDS011;10341;49.894;8.822;2023-05-19T16:52:42;2.03;;;1.50;;
20365;SDS011;10341;49.894;8.822;2023-05-19T16:58:02;1.63;;;1.30;;
20365;SDS011;10341;49.894;8.822;2023-05-19T17:03:20;2.35;;;1.25;;
20365;SDS011;10341;49.894;8.822;2023-05-19T17:08:40;2.20;;;1.55;;
20365;SDS011;10341;49.894;8.822;2023-05-19T17:13:59;2.55;;;1.52;;
20365;SDS011;10341;49.894;8.822;2023-05-19T17:19:19;2.80;;;1.50;;
20365;SDS011;10341;49.894;8.822;2023-05-19T17:24:39;2.08;;;1.35;;
20365;SDS011;10341;49.894;8.822;2023-05-19T17:29:58;1.55;;;1.30;;
20365;SDS011;10341;49.894;8.822;2023-05-19T17:35:17;2.72;;;1.27;;
20365;SDS011;10341;49.894;8.822;2023-05-19T17:40:36;1.67;;;1.58;;
20365;SDS011;10341;49.894;8.822;2023-05-19T17:45:56;2.70;;;1.30;;
20365;SDS011;10341;49.894;8.822;2023-05-19T17:51:15;2.17;;;1.70;;
20365;SDS011;10341;49.894;8.822;2023-05-19T17:56:35;3.58;;;1.73;;
20365;SDS011;10341;49.894;8.822;2023-05-19T18:01:59;2.97;;;1.40;;
20365;SDS011;10341;49.894;8.822;2023-05-19T18:07:19;1.83;;;1.60;;
20365;SDS011;10341;49.894;8.822;2023-05-19T18:12:42;2.08;;;1.48;;
20365;SDS011;10341;49.894;8.822;2023-05-19T18:18:01;2.00;;;1.20;;
20365;SDS011;10341;49.894;8.822;2023-05-19T18:23:23;1.63;;;1.33;;
20365;SDS011;10341;49.894;8.822;2023-05-19T18:28:42;1.63;;;1.33;;
20365;SDS011;10341;49.894;8.822;2023-05-19T18:34:01;1.98;;;1.13;;
20365;SDS011;10341;49.894;8.822;2023-05-19T18:39:21;1.23;;;1.02;;
20365;SDS011;10341;49.894;8.822;2023-05-19T18:44:41;1.45;;;1.00;;
20365;SDS011;10341;49.894;8.822;2023-05-19T18:50:04;2.28;;;1.35;;
20365;SDS011;10341;49.894;8.822;2023-05-19T18:55:24;3.33;;;1.25;;
20365;SDS011;10341;49.894;8.822;2023-05-19T19:00:44;6.32;;;1.10;;
20365;SDS011;10341;49.894;8.822;2023-05-19T19:06:03;2.70;;;1.40;;
20365;SDS011;10341;49.894;8.822;2023-05-19T19:11:22;1.67;;;1.20;;
20365;SDS011;10341;49.894;8.822;2023-05-19T19:16:41;6.80;;;2.15;;
20365;SDS011;10341;49.894;8.822;2023-05-19T19:22:01;1.90;;;1.25;;
20365;SDS011;10341;49.894;8.822;2023-05-19T19:27:20;2.58;;;1.40;;
20365;SDS011;10341;49.894;8.822;2023-05-19T19:32:39;1.48;;;1.33;;
20365;SDS011;10341;49.894;8.822;2023-05-19T19:37:58;1.65;;;1.20;;
20365;SDS011;10341;49.894;8.822;2023-05-19T19:43:17;1.97;;;1.40;;
20365;SDS011;10341;49.894;8.822;2023-05-19T19:48:37;1.77;;;1.20;;
20365;SDS011;10341;49.894;8.822;2023-05-19T19:53:56;2.03;;;1.30;;
20365;SDS011;10341;49.894;8.822;2023-05-19T19:59:16;1.73;;;1.30;;
20365;SDS011;10341;49.894;8.822;2023-05-19T20:04:35;2.55;;;1.20;;
20365;SDS011;10341;49.894;8.822;2023-05-19T20:09:54;1.95;;;1.30;;
20365;SDS011;10341;49.894;8.822;2023-05-19T20:15:13;2.58;;;1.40;;
20365;SDS011;10341;49.894;8.822;2023-05-19T20:20:32;1.87;;;1.33;;
20365;SDS011;10341;49.894;8.822;2023-05-19T20:25:51;2.70;;;1.98;;
20365;SDS011;10341;49.894;8.822;2023-05-19T20:31:11;1.73;;;1.45;;
20365;SDS011;10341;49.894;8.822;2023-05-19T20:36:30;1.88;;;1.25;;
20365;SDS011;10341;49.894;8.822;2023-05-19T20:41:49;4.65;;;1.50;;
20365;SDS011;10341;49.894;8.822;2023-05-19T20:47:08;1.70;;;1.40;;
20365;SDS011;10341;49.894;8.822;2023-05-19T20:52:28;2.80;;;1.10;;
20365;SDS011;10341;49.894;8.822;2023-05-19T20:57:47;7.67;;;1.50;;
20365;SDS011;10341;49.894;8.822;2023-05-19T21:03:07;1.58;;;1.23;;
20365;SDS011;10341;49.894;8.822;2023-05-19T21:08:26;2.40;;;1.45;;
20365;SDS011;10341;49.894;8.822;2023-05-19T21:13:45;1.90;;;1.35;;
20365;SDS011;10341;49.894;8.822;2023-05-19T21:19:04;2.30;;;1.25;;
20365;SDS011;10341;49.894;8.822;2023-05-19T21:24:24;3.08;;;1.40;;
20365;SDS011;10341;49.894;8.822;2023-05-19T21:29:43;3.03;;;1.30;;
20365;SDS011;10341;49.894;8.822;2023-05-19T21:35:03;4.65;;;2.38;;
20365;SDS011;10341;49.894;8.822;2023-05-19T21:40:22;2.92;;;1.83;;
20365;SDS011;10341;49.894;8.822;2023-05-19T21:45:41;2.35;;;1.67;;
20365;SDS011;10341;49.894;8.822;2023-05-19T21:51:01;1.52;;;1.42;;
20365;SDS011;10341;49.894;8.822;2023-05-19T21:56:19;2.72;;;1.65;;
20365;SDS011;10341;49.894;8.822;2023-05-19T22:01:40;2.50;;;1.50;;
20365;SDS011;10341;49.894;8.822;2023-05-19T22:06:59;3.07;;;1.83;;
20365;SDS011;10341;49.894;8.822;2023-05-19T22:12:18;2.80;;;1.85;;
20365;SDS011;10341;49.894;8.822;2023-05-19T22:17:38;3.67;;;2.28;;
20365;SDS011;10341;49.894;8.822;2023-05-19T22:22:57;3.28;;;2.10;;
20365;SDS011;10341;49.894;8.822;2023-05-19T22:28:18;3.20;;;2.10;;
20365;SDS011;10341;49.894;8.822;2023-05-19T22:33:37;2.60;;;1.60;;
20365;SDS011;10341;49.894;8.822;2023-05-19T22:38:56;1.92;;;1.55;;
20365;SDS011;10341;49.894;8.822;2023-05-19T22:44:15;1.60;;;1.35;;
20365;SDS011;10341;49.894;8.822;2023-05-19T22:49:38;1.90;;;1.50;;
20365;SDS011;10341;49.894;8.822;2023-05-19T22:54:58;2.47;;;1.73;;
20365;SDS011;10341;49.894;8.822;2023-05-19T23:00:17;13.43;;;6.32;;
20365;SDS011;10341;49.894;8.822;2023-05-19T23:05:38;16.45;;;8.27;;
20365;SDS011;10341;49.894;8.822;2023-05-19T23:16:18;2.30;;;1.90;;
20365;SDS011;10341;49.894;8.822;2023-05-19T23:21:37;3.97;;;2.30;;
20365;SDS011;10341;49.894;8.822;2023-05-19T23:26:57;3.60;;;1.70;;
20365;SDS011;10341;49.894;8.822;2023-05-19T23:32:16;2.55;;;1.65;;
20365;SDS011;10341;49.894;8.822;2023-05-19T23:37:35;2.97;;;1.73;;
20365;SDS011;10341;49.894;8.822;2023-05-19T23:42:54;2.08;;;1.63;;
20365;SDS011;10341;49.894;8.822;2023-05-19T23:48:13;2.28;;;1.67;;
20365;SDS011;10341;49.894;8.822;2023-05-19T23:53:33;2.03;;;1.60;;
20365;SDS011;10341;49.894;8.822;2023-05-19T23:58:52;2.03;;;1.80;;
